Time;durP1;ratioP1;P1;durP2;ratioP2;P2;SDS_P1;SDS_P2;PMS_P1;PMS_P2;Temp;Humidity;BMP_temperature;BMP_pressure;BME280_temperature;BME280_humidity;BME280_pressure;Samples;Min_cycle;Max_cycle;Signal;HPM_P1;HPM_P2
2022/10/14 00:00:31;;;;;;;4.90;2.03;;;;;;;18.90;65.14;101273.66;2072151;28;20073;-72
2022/10/14 00:01:54;;;;;;;5.25;1.50;;;;;;;18.87;65.27;101265.66;2079702;28;20068;-73
2022/10/14 00:03:15;;;;;;;4.40;1.15;;;;;;;18.85;65.48;101267.44;2077354;28;20049;-73
2022/10/14 00:04:38;;;;;;;5.30;1.45;;;;;;;18.84;65.59;101269.22;2088115;28;20048;-73
2022/10/14 00:06:04;;;;;;;8.65;1.65;;;;;;;18.83;65.72;101264.81;2077279;28;20145;-73
2022/10/14 00:07:27;;;;;;;11.90;1.40;;;;;;;18.79;65.86;101265.72;2077173;28;20518;-72
2022/10/14 00:08:49;;;;;;;7.22;1.65;;;;;;;18.78;65.61;101265.72;2082494;28;20056;-72
2022/10/14 00:10:11;;;;;;;3.00;1.38;;;;;;;18.78;65.91;101265.72;2076936;28;20069;-73
2022/10/14 00:11:34;;;;;;;7.70;1.67;;;;;;;18.80;65.96;101262.16;2082446;28;20051;-72
2022/10/14 00:12:56;;;;;;;4.28;1.55;;;;;;;18.81;65.85;101261.25;2084021;28;20056;-72
2022/10/14 00:14:21;;;;;;;8.50;2.03;;;;;;;18.80;65.95;101254.13;2071694;28;20069;-72
2022/10/14 00:15:44;;;;;;;9.77;1.58;;;;;;;18.78;65.92;101255.91;2070124;28;20645;-72
2022/10/14 00:17:06;;;;;;;7.00;2.03;;;;;;;18.75;65.98;101253.28;2076645;28;20083;-72
2022/10/14 00:18:28;;;;;;;5.78;1.60;;;;;;;18.75;66.01;101250.63;2078477;28;20132;-72
2022/10/14 00:19:50;;;;;;;7.90;1.60;;;;;;;18.72;66.18;101247.97;2077540;28;20037;-72
2022/10/14 00:21:14;;;;;;;7.78;1.75;;;;;;;18.70;66.27;101236.41;2069233;28;20479;-72
2022/10/14 00:22:37;;;;;;;4.75;1.42;;;;;;;18.64;66.38;101245.34;2071592;28;20040;-73
2022/10/14 00:23:59;;;;;;;6.03;1.42;;;;;;;18.63;66.41;101246.28;2068466;28;20092;-72
2022/10/14 00:25:22;;;;;;;7.68;1.63;;;;;;;18.62;66.63;101241.84;2068310;28;20038;-72
2022/10/14 00:26:45;;;;;;;5.32;1.83;;;;;;;18.62;66.69;101246.28;2075289;28;20151;-72
2022/10/14 00:28:07;;;;;;;7.32;2.47;;;;;;;18.62;66.66;101243.63;2077095;28;20090;-72
2022/10/14 00:29:30;;;;;;;5.88;1.80;;;;;;;18.59;66.64;101236.50;2078749;28;20049;-72
2022/10/14 00:30:54;;;;;;;4.10;1.80;;;;;;;18.60;66.81;101234.72;2085725;28;20479;-72
2022/10/14 00:32:16;;;;;;;5.70;1.75;;;;;;;18.58;66.85;101225.81;2077371;28;20458;-72
2022/10/14 00:33:37;;;;;;;9.43;1.90;;;;;;;18.58;66.97;101228.47;2069059;28;20050;-72
2022/10/14 00:35:00;;;;;;;5.53;1.67;;;;;;;18.57;67.01;101224.94;2075831;28;20053;-72
2022/10/14 00:36:26;;;;;;;6.95;1.50;;;;;;;18.60;66.86;101226.69;2074246;28;20075;-72
2022/10/14 00:37:48;;;;;;;6.57;1.70;;;;;;;18.59;66.88;101215.09;2074342;28;20496;-72
2022/10/14 00:39:11;;;;;;;4.82;1.70;;;;;;;18.61;66.93;101209.75;2077281;28;20094;-73
2022/10/14 00:40:33;;;;;;;8.80;2.28;;;;;;;18.61;67.06;101207.06;2069447;28;20576;-72
2022/10/14 00:41:55;;;;;;;5.95;1.90;;;;;;;18.59;67.08;101209.75;2079835;28;20524;-72
2022/10/14 00:43:17;;;;;;;6.00;1.83;;;;;;;18.58;66.85;101217.78;2077174;28;20560;-72
2022/10/14 00:45:00;;;;;;;6.35;1.75;;;;;;;18.55;66.94;101212.44;2069985;28;20042;-73
2022/10/14 00:46:23;;;;;;;4.32;1.80;;;;;;;18.52;67.13;101210.69;2071898;28;20141;-72
2022/10/14 00:47:53;;;;;;;6.05;1.80;;;;;;;18.52;67.12;101208.00;2067740;28;20410;-72
2022/10/14 00:49:19;;;;;;;8.07;1.70;;;;;;;18.52;67.33;101199.09;2082512;28;20045;-72
2022/10/14 00:50:44;;;;;;;7.22;1.63;;;;;;;18.51;67.17;101200.88;2077698;28;20049;-72
2022/10/14 00:52:12;;;;;;;4.93;1.58;;;;;;;18.51;67.10;101200.03;2071887;28;20061;-72
2022/10/14 00:53:35;;;;;;;5.97;1.40;;;;;;;18.50;67.31;101193.78;2068009;28;20048;-72
2022/10/14 00:55:01;;;;;;;3.67;1.35;;;;;;;18.50;67.26;101191.13;2082152;28;20076;-72
2022/10/14 00:56:27;;;;;;;3.58;1.45;;;;;;;18.47;67.19;101193.81;2086076;28;20056;-72
2022/10/14 00:57:48;;;;;;;6.65;1.58;;;;;;;18.44;67.24;101185.84;2077442;28;20425;-72
2022/10/14 00:59:12;;;;;;;7.38;2.17;;;;;;;18.44;67.44;101182.25;2071333;28;20061;-71
2022/10/14 01:00:34;;;;;;;9.27;2.42;;;;;;;18.44;67.55;101171.56;2066187;28;20107;-72
2022/10/14 01:01:57;;;;;;;5.28;1.75;;;;;;;18.45;67.63;101173.31;2074366;28;20062;-72
2022/10/14 01:03:23;;;;;;;3.05;1.38;;;;;;;18.45;67.37;101171.53;2081089;28;20471;-72
2022/10/14 01:04:45;;;;;;;6.45;1.77;;;;;;;18.42;67.34;101168.91;2068491;28;20045;-72
2022/10/14 01:06:15;;;;;;;4.13;1.52;;;;;;;18.43;67.53;101169.78;2085808;28;20427;-72
2022/10/14 01:07:49;;;;;;;6.35;1.60;;;;;;;18.44;67.61;101171.56;2071414;28;20137;-72
2022/10/14 01:09:23;;;;;;;6.82;2.75;;;;;;;18.46;67.63;101169.75;2076439;28;20097;-72
2022/10/14 01:10:54;;;;;;;7.68;2.10;;;;;;;18.50;67.48;101163.47;2077570;28;20324;-72
2022/10/14 01:12:27;;;;;;;4.30;1.30;;;;;;;18.56;67.41;101156.31;2083547;28;20154;-72
2022/10/14 01:14:01;;;;;;;4.18;1.45;;;;;;;18.60;67.20;101155.38;2084187;28;20079;-72
2022/10/14 01:15:30;;;;;;;7.10;1.95;;;;;;;18.64;67.13;101153.56;2085276;28;20556;-72
2022/10/14 01:16:59;;;;;;;6.93;1.73;;;;;;;18.64;67.08;101157.09;2086339;28;20902;-72
2022/10/14 01:18:36;;;;;;;6.68;2.00;;;;;;;18.67;67.11;101153.50;2071147;28;20124;-72
2022/10/14 01:20:23;;;;;;;6.00;1.55;;;;;;;18.68;66.93;101153.50;2078421;28;20095;-73
2022/10/14 01:21:53;;;;;;;6.68;1.45;;;;;;;18.69;67.14;101151.72;2079949;28;20050;-72
2022/10/14 01:23:42;;;;;;;5.68;1.77;;;;;;;18.69;66.91;101141.91;2077854;28;20624;-73
2022/10/14 01:25:18;;;;;;;5.60;2.10;;;;;;;18.68;66.84;101137.47;2086793;28;20087;-72
2022/10/14 01:27:16;;;;;;;7.88;2.22;;;;;;;18.66;66.92;101130.34;2072152;28;20072;-72
2022/10/14 01:28:50;;;;;;;6.80;4.32;;;;;;;18.58;66.92;101126.84;2071467;28;20084;-72
2022/10/14 01:30:18;;;;;;;7.07;3.70;;;;;;;18.47;67.07;101123.41;2078040;28;20068;-72
2022/10/14 01:31:45;;;;;;;10.85;5.22;;;;;;;18.40;67.34;101129.72;2069416;28;20049;-72
2022/10/14 01:33:13;;;;;;;6.88;4.45;;;;;;;18.33;67.50;101132.44;2070544;28;20141;-72
2022/10/14 01:34:41;;;;;;;11.48;7.00;;;;;;;18.28;67.71;101133.41;2070498;28;20049;-72
2022/10/14 01:36:11;;;;;;;12.30;8.57;;;;;;;18.24;67.98;101132.56;2082812;28;20041;-73
2022/10/14 01:37:36;;;;;;;7.93;5.13;;;;;;;18.25;68.13;101133.41;2070684;28;20494;-72
2022/10/14 01:39:03;;;;;;;7.18;3.13;;;;;;;18.27;68.15;101132.50;2077361;28;20051;-72
2022/10/14 01:40:31;;;;;;;12.35;3.03;;;;;;;18.32;68.21;101129.78;2079158;28;20038;-72
2022/10/14 01:41:58;;;;;;;7.60;2.40;;;;;;;18.34;68.00;101128.00;2086573;28;20528;-72
2022/10/14 01:43:22;;;;;;;5.65;2.33;;;;;;;18.36;68.12;101139.56;2081289;28;20136;-72
2022/10/14 01:44:50;;;;;;;4.90;1.98;;;;;;;18.41;67.89;101151.09;2084235;28;20041;-72
2022/10/14 01:46:16;;;;;;;8.13;1.58;;;;;;;18.43;67.92;101146.63;2080127;28;20050;-72
2022/10/14 01:47:40;;;;;;;4.88;1.65;;;;;;;18.48;67.97;101143.88;2077006;28;20120;-72
2022/10/14 01:49:08;;;;;;;10.60;1.80;;;;;;;18.52;67.66;101146.50;2077898;28;20076;-72
2022/10/14 01:50:36;;;;;;;5.40;1.60;;;;;;;18.56;67.52;101136.72;2077669;28;20042;-73
2022/10/14 01:52:05;;;;;;;4.80;1.92;;;;;;;18.58;67.55;101140.22;2077187;28;20196;-72
2022/10/14 01:53:34;;;;;;;7.75;2.90;;;;;;;18.57;67.26;101139.38;2084102;28;20783;-72
2022/10/14 01:55:02;;;;;;;7.63;2.15;;;;;;;18.56;67.19;101137.59;2062968;28;20050;-72
2022/10/14 01:56:26;;;;;;;8.40;2.40;;;;;;;18.53;67.41;101139.38;2074067;28;20103;-73
2022/10/14 01:57:50;;;;;;;4.22;1.60;;;;;;;18.51;67.23;101141.19;2078162;28;20051;-73
2022/10/14 01:59:15;;;;;;;4.47;1.55;;;;;;;18.48;67.39;101136.75;2083184;28;20519;-72
2022/10/14 02:00:37;;;;;;;4.60;1.55;;;;;;;18.44;67.73;101131.47;2062214;28;20054;-72
2022/10/14 02:02:01;;;;;;;5.70;1.83;;;;;;;18.43;67.80;101129.69;2076598;28;20064;-73
2022/10/14 02:03:23;;;;;;;5.03;1.73;;;;;;;18.40;67.77;101132.38;2078689;28;20143;-72
2022/10/14 02:04:45;;;;;;;6.82;1.80;;;;;;;18.37;67.80;101127.09;2082970;28;20359;-73
2022/10/14 02:06:13;;;;;;;4.15;1.40;;;;;;;18.38;67.75;101129.72;2073844;28;20148;-73
2022/10/14 02:07:40;;;;;;;5.40;1.60;;;;;;;18.38;67.98;101139.56;2089058;28;20130;-72
2022/10/14 02:09:11;;;;;;;5.93;1.38;;;;;;;18.39;67.97;101147.53;2076457;28;20103;-72
2022/10/14 02:11:00;;;;;;;5.93;1.65;;;;;;;18.39;68.09;101149.31;2071447;28;20402;-72
2022/10/14 02:12:33;;;;;;;6.25;1.63;;;;;;;18.40;68.06;101141.28;2081173;28;20426;-73
2022/10/14 02:14:10;;;;;;;5.22;1.90;;;;;;;18.45;68.02;101143.91;2072572;28;20141;-73
2022/10/14 02:15:42;;;;;;;5.75;1.77;;;;;;;18.47;67.74;101147.47;2071973;28;20410;-72
2022/10/14 02:17:17;;;;;;;7.95;1.70;;;;;;;18.47;67.64;101143.00;2073512;28;20124;-73
2022/10/14 02:18:44;;;;;;;6.55;2.05;;;;;;;18.46;67.56;101149.25;2074511;28;20076;-73
2022/10/14 02:20:16;;;;;;;5.03;1.40;;;;;;;18.45;67.54;101152.81;2085500;28;20044;-73
2022/10/14 02:21:44;;;;;;;5.90;2.15;;;;;;;18.42;67.73;101163.56;2078409;28;20440;-73
2022/10/14 02:23:09;;;;;;;4.70;2.00;;;;;;;18.40;67.62;101157.34;2087102;28;20079;-72
2022/10/14 02:24:36;;;;;;;7.28;2.50;;;;;;;18.39;67.61;101155.56;2078814;28;20042;-73
2022/10/14 02:26:00;;;;;;;5.68;1.77;;;;;;;18.37;67.67;101152.03;2076118;28;20049;-73
2022/10/14 02:27:26;;;;;;;3.13;1.80;;;;;;;18.36;67.57;101152.94;2071049;28;20112;-73
2022/10/14 02:28:51;;;;;;;7.40;2.33;;;;;;;18.35;67.80;101147.59;2082936;28;20040;-73
2022/10/14 02:30:15;;;;;;;6.47;2.00;;;;;;;18.34;67.70;101144.03;2071873;28;20512;-73
2022/10/14 02:31:41;;;;;;;4.43;1.45;;;;;;;18.32;67.60;101144.03;2067711;28;20136;-73
2022/10/14 02:33:05;;;;;;;5.25;1.50;;;;;;;18.25;67.52;101134.31;2074305;28;20136;-73
2022/10/14 02:34:27;;;;;;;5.68;1.88;;;;;;;18.20;67.72;101122.78;2082581;28;20033;-73
2022/10/14 02:35:50;;;;;;;5.60;1.55;;;;;;;18.17;67.78;101124.63;2077837;28;20076;-72
2022/10/14 02:37:14;;;;;;;6.93;1.75;;;;;;;18.15;67.84;101127.28;2074985;28;20048;-73
2022/10/14 02:38:37;;;;;;;8.32;2.35;;;;;;;18.12;67.98;101116.63;2075683;28;20068;-73
2022/10/14 02:40:03;;;;;;;9.82;2.00;;;;;;;18.11;68.10;101120.22;2086403;28;20056;-73
2022/10/14 02:41:32;;;;;;;3.28;1.50;;;;;;;18.08;68.11;101119.34;2077343;28;20525;-73
2022/10/14 02:42:55;;;;;;;9.45;1.92;;;;;;;18.03;68.36;101121.19;2084997;28;20037;-73
2022/10/14 02:44:17;;;;;;;4.45;1.60;;;;;;;18.01;68.26;101120.28;2074570;28;20053;-73
2022/10/14 02:45:44;;;;;;;5.38;2.35;;;;;;;18.02;68.44;101122.97;2080501;28;20157;-73
2022/10/14 02:47:06;;;;;;;7.32;1.83;;;;;;;18.05;68.64;101120.25;2074829;28;20140;-73
2022/10/14 02:48:30;;;;;;;10.05;2.10;;;;;;;18.07;68.78;101123.81;2082750;28;20045;-73
2022/10/14 02:49:54;;;;;;;3.55;1.50;;;;;;;18.07;68.78;101122.91;2077313;28;20054;-73
2022/10/14 02:51:16;;;;;;;;;;;;;;;18.06;68.74;101138.06;2066640;28;20426;-74
2022/10/14 02:52:38;;;;;;;11.60;1.95;;;;;;;18.11;68.70;101144.25;2076629;28;19960;-73
2022/10/14 02:54:01;;;;;;;3.88;1.80;;;;;;;18.16;68.94;101147.78;2074496;28;20055;-73
2022/10/14 02:55:23;;;;;;;4.53;1.92;;;;;;;18.21;68.82;101151.28;2077317;28;20054;-72
2022/10/14 02:56:45;;;;;;;6.47;1.60;;;;;;;18.22;68.73;101155.72;2072630;28;20048;-73
2022/10/14 02:58:08;;;;;;;4.57;1.95;;;;;;;18.23;68.58;101161.97;2073255;28;20148;-73
2022/10/14 02:59:31;;;;;;;5.05;2.10;;;;;;;18.24;68.38;101153.94;2082483;28;20045;-73
2022/10/14 03:00:53;;;;;;;7.63;2.20;;;;;;;18.25;68.38;101147.66;2081107;28;20528;-73
2022/10/14 03:02:15;;;;;;;6.10;1.95;;;;;;;18.26;68.21;101141.44;2069502;28;20046;-73
2022/10/14 03:03:39;;;;;;;5.05;1.55;;;;;;;18.27;68.28;101140.53;2069456;28;20355;-73
2022/10/14 03:05:02;;;;;;;6.97;1.85;;;;;;;18.21;68.08;101139.72;2077112;28;20095;-73
2022/10/14 03:06:24;;;;;;;5.10;1.70;;;;;;;18.15;68.12;101131.75;2074777;28;20105;-72
2022/10/14 03:07:46;;;;;;;5.55;1.88;;;;;;;18.08;68.02;101127.34;2073440;28;20513;-73
2022/10/14 03:09:12;;;;;;;5.47;1.60;;;;;;;18.05;68.33;101120.25;2084132;28;20081;-73
2022/10/14 03:10:35;;;;;;;6.53;2.42;;;;;;;18.00;68.27;101118.53;2076529;28;20501;-73
2022/10/14 03:11:57;;;;;;;4.82;2.67;;;;;;;17.92;68.45;101113.25;2074682;28;20046;-73
2022/10/14 03:13:19;;;;;;;5.47;2.10;;;;;;;17.86;68.46;101107.97;2082760;28;20400;-72
2022/10/14 03:14:43;;;;;;;6.43;2.20;;;;;;;17.80;68.85;101100.00;2077795;28;20129;-73
2022/10/14 03:16:08;;;;;;;8.20;1.85;;;;;;;17.78;69.09;101105.38;2077540;28;20046;-73
2022/10/14 03:17:35;;;;;;;3.00;1.58;;;;;;;17.78;69.12;101108.03;2072916;28;20053;-73
2022/10/14 03:19:02;;;;;;;8.98;2.33;;;;;;;17.81;69.26;101115.13;2067691;28;20113;-73
2022/10/14 03:20:36;;;;;;;5.43;1.83;;;;;;;17.82;69.23;101103.56;2076714;28;20092;-73
2022/10/14 03:22:01;;;;;;;5.43;1.67;;;;;;;17.86;69.35;101103.50;2069320;28;20085;-73
2022/10/14 03:23:23;;;;;;;8.43;2.08;;;;;;;17.88;69.13;101100.81;2067554;28;20042;-73
2022/10/14 03:24:48;;;;;;;7.90;1.90;;;;;;;17.89;69.05;101098.16;2070493;28;20053;-73
2022/10/14 03:26:34;;;;;;;5.65;2.28;;;;;;;17.91;68.94;101095.47;2082458;28;20092;-73
2022/10/14 03:27:56;;;;;;;5.28;1.55;;;;;;;17.92;68.91;101097.22;2076734;28;20053;-72
2022/10/14 03:29:30;;;;;;;4.85;2.10;;;;;;;17.95;68.72;101096.31;2069907;28;21185;-72
2022/10/14 03:31:02;;;;;;;;;;;;;;;17.91;68.53;101090.13;2078232;28;20045;-72
2022/10/14 03:32:43;;;;;;;5.57;2.65;;;;;;;17.88;68.64;101091.03;2080711;28;20403;-72
2022/10/14 03:34:26;;;;;;;8.82;5.35;;;;;;;17.83;68.44;101086.63;2072059;28;20506;-72
2022/10/14 03:35:59;;;;;;;8.80;6.10;;;;;;;17.69;68.55;101084.06;2075334;28;20505;-72
2022/10/14 03:37:34;;;;;;;9.63;6.05;;;;;;;17.61;68.79;101080.56;2078008;28;20041;-72
2022/10/14 03:38:58;;;;;;;10.20;4.72;;;;;;;17.61;68.91;101069.91;2075025;28;20148;-72
2022/10/14 03:40:33;;;;;;;6.53;4.55;;;;;;;17.67;69.07;101076.97;2078450;28;20045;-72
2022/10/14 03:42:01;;;;;;;9.45;6.72;;;;;;;17.71;68.80;101086.75;2074483;28;20053;-72
2022/10/14 03:43:29;;;;;;;10.18;6.28;;;;;;;17.73;68.55;101092.94;2068791;28;20049;-72
2022/10/14 03:44:54;;;;;;;11.52;6.15;;;;;;;17.73;68.46;101092.94;2072325;28;20430;-72
2022/10/14 03:46:20;;;;;;;9.23;5.05;;;;;;;17.69;68.49;101093.88;2074911;28;20037;-72
2022/10/14 03:47:45;;;;;;;7.65;4.20;;;;;;;17.69;68.73;101096.53;2072351;28;20098;-72
2022/10/14 03:49:07;;;;;;;6.72;2.75;;;;;;;17.68;68.77;101098.31;2068333;28;20426;-72
2022/10/14 03:50:32;;;;;;;5.80;2.40;;;;;;;17.69;68.64;101097.44;2071149;28;20041;-72
2022/10/14 03:51:54;;;;;;;5.22;2.05;;;;;;;17.67;68.44;101101.00;2066103;28;20165;-72
2022/10/14 03:53:21;;;;;;;5.00;2.22;;;;;;;17.62;68.34;101102.81;2073427;28;20112;-72
2022/10/14 03:54:44;;;;;;;10.23;2.40;;;;;;;17.58;68.38;101098.38;2074790;28;20061;-72
2022/10/14 03:56:09;;;;;;;5.38;1.77;;;;;;;17.53;68.47;101099.28;2080404;28;20061;-72
2022/10/14 03:57:32;;;;;;;7.30;1.80;;;;;;;17.51;68.52;101090.44;2076986;28;20097;-72
2022/10/14 03:58:56;;;;;;;6.80;1.92;;;;;;;17.46;68.59;101086.88;2073721;28;20053;-71
2022/10/14 04:00:20;;;;;;;6.03;2.22;;;;;;;17.45;68.81;101097.59;2073974;28;20540;-72
2022/10/14 04:01:51;;;;;;;6.00;2.30;;;;;;;17.44;69.04;101090.47;2076325;28;20081;-72
2022/10/14 04:03:21;;;;;;;7.50;1.75;;;;;;;17.47;69.09;101085.09;2069951;28;20074;-72
2022/10/14 04:04:44;;;;;;;4.38;2.30;;;;;;;17.49;69.08;101084.19;2068800;28;20050;-72
2022/10/14 04:06:08;;;;;;;8.02;2.30;;;;;;;17.54;68.97;101078.81;2069212;28;20040;-72
2022/10/14 04:07:31;;;;;;;5.90;1.92;;;;;;;17.57;68.87;101081.47;2066410;28;20046;-72
2022/10/14 04:08:54;;;;;;;5.75;1.88;;;;;;;17.57;68.71;101073.47;2073470;28;20559;-72
2022/10/14 04:10:24;;;;;;;7.50;2.38;;;;;;;17.57;68.63;101069.91;2075508;28;20060;-72
2022/10/14 04:11:48;;;;;;;5.82;2.00;;;;;;;17.57;68.50;101073.47;2080649;28;20083;-72
2022/10/14 04:13:29;;;;;;;7.63;2.20;;;;;;;17.57;68.60;101073.47;2077189;28;20052;-72
2022/10/14 04:14:55;;;;;;;6.07;2.38;;;;;;;17.58;68.46;101061.91;2072600;28;20080;-72
2022/10/14 04:16:19;;;;;;;7.38;2.20;;;;;;;17.59;68.58;101066.31;2077435;28;20058;-72
2022/10/14 04:17:54;;;;;;;6.47;3.20;;;;;;;17.60;68.45;101068.09;2086410;28;20575;-72
2022/10/14 04:19:18;;;;;;;8.30;4.20;;;;;;;17.58;68.34;101071.69;2076369;28;20049;-72
2022/10/14 04:20:39;;;;;;;7.22;3.00;;;;;;;17.54;67.98;101066.34;2074186;28;20044;-72
2022/10/14 04:22:05;;;;;;;9.38;2.50;;;;;;;17.52;68.13;101061.94;2074804;28;20045;-72
2022/10/14 04:23:28;;;;;;;6.63;2.63;;;;;;;17.49;68.00;101061.97;2069640;28;20603;-72
2022/10/14 04:24:57;;;;;;;4.75;2.38;;;;;;;17.44;68.10;101063.78;2061661;28;20541;-72
2022/10/14 04:26:19;;;;;;;7.32;2.30;;;;;;;17.40;68.03;101057.56;2071649;28;20105;-72
2022/10/14 04:27:42;;;;;;;4.57;2.15;;;;;;;17.39;68.10;101053.13;2084004;28;20543;-72
2022/10/14 04:29:04;;;;;;;9.57;4.43;;;;;;;17.39;68.31;101049.59;2075956;28;20513;-72
2022/10/14 04:30:37;;;;;;;7.35;2.28;;;;;;;17.40;68.31;101048.66;2075543;28;20721;-72
2022/10/14 04:32:01;;;;;;;4.72;1.92;;;;;;;17.40;68.29;101041.56;2073175;28;20049;-72
2022/10/14 04:33:25;;;;;;;6.95;1.98;;;;;;;17.41;68.13;101032.66;2073536;28;20042;-72
2022/10/14 04:34:47;;;;;;;6.20;2.13;;;;;;;17.43;68.10;101027.31;2070071;28;20596;-72
2022/10/14 04:36:13;;;;;;;9.02;2.75;;;;;;;17.44;67.97;101029.09;2069419;28;20148;-72
2022/10/14 04:37:39;;;;;;;5.45;2.60;;;;;;;17.44;68.10;101015.75;2068811;28;20073;-72
2022/10/14 04:39:05;;;;;;;6.47;2.53;;;;;;;17.45;68.04;101014.84;2071311;28;20116;-72
2022/10/14 04:40:27;;;;;;;7.47;2.10;;;;;;;17.47;68.10;101015.69;2069289;28;20065;-72
2022/10/14 04:41:51;;;;;;;4.88;2.35;;;;;;;17.51;67.95;101015.69;2074230;28;20509;-72
2022/10/14 04:43:15;;;;;;;4.40;2.40;;;;;;;17.53;67.88;101021.88;2077204;28;20053;-72
2022/10/14 04:44:38;;;;;;;5.85;1.85;;;;;;;17.54;67.72;101026.31;2074863;28;20098;-72
2022/10/14 04:45:59;;;;;;;10.98;2.50;;;;;;;17.56;67.57;101028.97;2058020;28;20545;-72
2022/10/14 04:47:22;;;;;;;5.32;2.63;;;;;;;17.59;67.70;101028.06;2064624;28;20050;-72
2022/10/14 04:48:51;;;;;;;8.35;3.45;;;;;;;17.62;67.70;101033.41;2077451;28;20045;-72
2022/10/14 04:50:14;;;;;;;7.70;3.00;;;;;;;17.65;67.67;101036.94;2068494;28;20042;-72
2022/10/14 04:51:59;;;;;;;5.70;3.50;;;;;;;17.67;67.58;101045.81;2079555;28;20108;-71
2022/10/14 04:53:30;;;;;;;;;;;;;;;17.64;67.62;101052.97;2074727;28;20076;-72
2022/10/14 04:55:12;;;;;;;5.82;2.10;;;;;;;17.67;67.67;101047.59;2072298;28;19951;-72
2022/10/14 04:56:38;;;;;;;5.60;2.10;;;;;;;17.69;67.33;101044.03;2070798;28;20045;-72
2022/10/14 04:57:59;;;;;;;5.43;2.30;;;;;;;17.73;67.38;101036.84;2066640;28;20148;-72
2022/10/14 04:59:26;;;;;;;7.13;2.10;;;;;;;17.81;67.53;101033.22;2068010;28;20038;-72
2022/10/14 05:00:54;;;;;;;5.45;2.28;;;;;;;17.93;67.75;101034.88;2075860;28;20110;-72
2022/10/14 05:02:24;;;;;;;5.93;2.10;;;;;;;18.05;67.70;101024.06;2071664;28;20706;-72
2022/10/14 05:03:52;;;;;;;4.78;2.10;;;;;;;18.18;67.72;101017.69;2074221;28;20050;-72
2022/10/14 05:05:15;;;;;;;3.67;1.75;;;;;;;18.27;67.16;101017.59;2075708;28;20112;-72
2022/10/14 05:06:40;;;;;;;7.22;2.10;;;;;;;18.40;67.01;101023.66;2068449;28;20093;-72
2022/10/14 05:08:05;;;;;;;5.82;1.92;;;;;;;18.53;67.03;101017.25;2081835;28;20048;-72
2022/10/14 05:09:35;;;;;;;5.45;2.10;;;;;;;18.71;66.86;101019.72;2076913;28;20056;-72
2022/10/14 05:10:57;;;;;;;7.57;1.75;;;;;;;18.92;66.37;101010.50;2074298;28;20473;-72
2022/10/14 05:12:35;;;;;;;5.28;1.60;;;;;;;19.16;66.34;101006.59;2071956;28;20052;-72
2022/10/14 05:13:59;;;;;;;5.72;1.42;;;;;;;19.35;65.90;100993.78;2073489;28;20136;-71
2022/10/14 05:15:24;;;;;;;5.20;1.67;;;;;;;19.52;65.47;100999.78;2068313;28;20437;-72
2022/10/14 05:16:57;;;;;;;4.57;1.52;;;;;;;19.69;65.00;101008.38;2069711;28;20140;-72
2022/10/14 05:18:24;;;;;;;5.53;1.70;;;;;;;19.85;64.64;101020.59;2077256;28;20050;-72
2022/10/14 05:19:57;;;;;;;6.75;1.67;;;;;;;20.02;64.19;101031.00;2073310;28;20750;-72
2022/10/14 05:21:22;;;;;;;8.70;2.08;;;;;;;20.14;63.80;101038.81;2069097;28;20060;-72
2022/10/14 05:22:54;;;;;;;3.60;1.75;;;;;;;20.26;63.59;101045.75;2070292;28;20050;-72
2022/10/14 05:24:16;;;;;;;9.38;2.22;;;;;;;20.36;63.29;101043.78;2077951;28;20409;-72
2022/10/14 05:25:42;;;;;;;8.05;2.25;;;;;;;20.45;63.10;101048.97;2080685;28;20041;-72
2022/10/14 05:27:04;;;;;;;10.30;2.45;;;;;;;20.49;62.86;101047.97;2074726;28;20041;-72
2022/10/14 05:28:28;;;;;;;8.32;2.47;;;;;;;20.50;62.52;101050.63;2069967;28;20076;-72
2022/10/14 05:29:51;;;;;;;6.05;2.58;;;;;;;20.56;62.30;101057.66;2074427;28;20501;-72
2022/10/14 05:31:13;;;;;;;9.50;4.28;;;;;;;20.63;62.29;101057.50;2068490;28;20049;-73
2022/10/14 05:32:44;;;;;;;7.95;4.43;;;;;;;20.71;62.14;101060.03;2076729;28;20589;-72
2022/10/14 05:34:06;;;;;;;7.13;4.25;;;;;;;20.74;61.80;101054.63;2077306;28;20148;-72
2022/10/14 05:35:28;;;;;;;9.95;3.58;;;;;;;20.79;61.84;101065.25;2077428;28;20148;-72
2022/10/14 05:36:51;;;;;;;9.23;2.90;;;;;;;20.85;61.60;101070.47;2070073;28;20377;-72
2022/10/14 05:38:15;;;;;;;11.10;3.38;;;;;;;20.91;61.35;101065.88;2066866;28;20449;-72
2022/10/14 05:39:38;;;;;;;8.73;3.10;;;;;;;21.00;61.13;101072.84;2074014;28;20046;-72
2022/10/14 05:41:02;;;;;;;4.70;2.17;;;;;;;21.12;60.86;101085.09;2075431;28;20115;-72
2022/10/14 05:42:25;;;;;;;4.63;1.73;;;;;;;21.21;60.87;101075.06;2072971;28;20046;-72
2022/10/14 05:43:50;;;;;;;4.35;1.63;;;;;;;21.35;60.55;101075.63;2076186;28;20049;-72
2022/10/14 05:45:12;;;;;;;4.32;1.40;;;;;;;21.50;60.21;101074.38;2074145;28;20081;-72
2022/10/14 05:46:42;;;;;;;3.75;1.42;;;;;;;21.64;59.72;101071.34;2074575;28;20049;-72
2022/10/14 05:48:05;;;;;;;6.30;1.75;;;;;;;21.77;59.01;101079.06;2074883;28;20084;-72
2022/10/14 05:49:30;;;;;;;4.72;1.52;;;;;;;21.88;58.57;101076.09;2085190;28;20037;-72
2022/10/14 05:51:00;;;;;;;3.72;1.60;;;;;;;21.98;58.41;101069.59;2078577;28;20053;-73
2022/10/14 05:52:22;;;;;;;4.47;1.30;;;;;;;22.08;57.79;101073.78;2078510;28;20137;-72
2022/10/14 05:53:45;;;;;;;4.70;1.40;;;;;;;22.13;57.31;101079.03;2069795;28;20081;-72
2022/10/14 05:55:12;;;;;;;6.22;1.70;;;;;;;22.21;57.30;101068.97;2087332;28;20548;-73
2022/10/14 05:56:36;;;;;;;5.57;1.55;;;;;;;22.31;57.00;101058.84;2074154;28;20648;-72
2022/10/14 05:57:59;;;;;;;7.03;1.42;;;;;;;22.43;57.20;101063.88;2075800;28;20168;-72
2022/10/14 05:59:28;;;;;;;6.28;1.88;;;;;;;22.60;57.05;101066.97;2080226;28;20045;-72
2022/10/14 06:00:51;;;;;;;4.53;1.73;;;;;;;22.75;56.98;101061.16;2072181;28;20056;-72
2022/10/14 06:02:13;;;;;;;4.95;1.38;;;;;;;22.90;56.58;101058.03;2074717;28;20669;-72
2022/10/14 06:03:36;;;;;;;5.22;1.17;;;;;;;23.04;55.74;101063.84;2073225;28;20053;-72
2022/10/14 06:04:59;;;;;;;4.57;1.45;;;;;;;23.18;54.84;101065.22;2076179;28;20053;-73
2022/10/14 06:06:22;;;;;;;5.45;1.33;;;;;;;23.29;54.01;101069.38;2073933;28;20059;-72
2022/10/14 06:07:47;;;;;;;2.88;1.33;;;;;;;23.40;53.85;101069.91;2078004;28;20509;-72
2022/10/14 06:09:09;;;;;;;4.40;1.33;;;;;;;23.52;53.21;101075.84;2071712;28;20073;-72
2022/10/14 06:10:32;;;;;;;3.92;1.52;;;;;;;23.63;52.82;101077.25;2070500;28;20049;-71
2022/10/14 06:11:58;;;;;;;5.20;1.10;;;;;;;23.74;52.48;101074.22;2077608;28;20513;-72
2022/10/14 06:13:22;;;;;;;2.90;1.08;;;;;;;23.84;51.98;101072.94;2069689;28;20076;-72
2022/10/14 06:14:44;;;;;;;7.82;1.33;;;;;;;23.96;52.03;101067.13;2073752;28;20049;-72
2022/10/14 06:16:09;;;;;;;2.88;1.52;;;;;;;24.09;51.55;101068.47;2079255;28;20044;-73
2022/10/14 06:17:32;;;;;;;2.67;1.05;;;;;;;24.19;51.21;101066.38;2075964;28;20041;-72
2022/10/14 06:18:54;;;;;;;3.75;1.63;;;;;;;24.29;50.99;101075.00;2075324;28;20049;-73
2022/10/14 06:20:17;;;;;;;4.25;0.98;;;;;;;24.42;51.04;101076.31;2068025;28;20041;-73
2022/10/14 06:21:40;;;;;;;6.45;1.30;;;;;;;24.56;51.15;101082.97;2080409;28;20932;-72
2022/10/14 06:23:03;;;;;;;5.38;1.60;;;;;;;24.70;50.10;101066.25;2082099;28;20041;-72
2022/10/14 06:24:26;;;;;;;2.88;1.27;;;;;;;24.79;49.99;101062.34;2081875;28;20092;-73
2022/10/14 06:25:48;;;;;;;3.15;1.15;;;;;;;24.94;50.10;101069.91;2085959;28;20435;-73
2022/10/14 06:27:13;;;;;;;5.22;1.35;;;;;;;25.09;49.99;101063.00;2084647;28;20056;-72
2022/10/14 06:28:35;;;;;;;3.47;1.20;;;;;;;25.16;49.72;101064.50;2088557;28;20494;-73
2022/10/14 06:29:58;;;;;;;4.13;1.55;;;;;;;25.32;49.17;101052.16;2078478;28;20481;-72
2022/10/14 06:31:20;;;;;;;3.78;1.17;;;;;;;25.48;48.61;101047.88;2068198;28;20042;-72
2022/10/14 06:32:43;;;;;;;3.17;1.13;;;;;;;25.54;48.02;101052.13;2077244;28;20076;-72
2022/10/14 06:34:05;;;;;;;4.10;1.40;;;;;;;25.51;47.32;101045.06;2081777;28;20041;-72
2022/10/14 06:35:28;;;;;;;2.80;1.33;;;;;;;25.47;47.09;101056.91;2072059;28;20045;-72
2022/10/14 06:36:50;;;;;;;2.92;1.25;;;;;;;25.46;47.18;101047.06;2065125;28;20107;-72
2022/10/14 06:38:13;;;;;;;3.17;1.17;;;;;;;25.57;47.02;101054.72;2070782;28;20485;-72
2022/10/14 06:39:35;;;;;;;5.18;1.40;;;;;;;25.67;46.89;101058.81;2075128;28;20037;-72